Vliegveldwaarnemingen Nederland - (AUTO) METAR

Luchtvaartmeteorologische informatie voor operationeel gebruik en vluchtvoorbereiding is beschikbaar op www.luchtvaartmeteo.nl.

ZCZC
SA241455 EHFS     VLISSINGEN AWS   NLD   8 m.
METAR EHFS 241455Z AUTO 32012KT 280V340 9999 NSC 20/11 Q1025=

ZCZC
SA241525 EHKD     DE KOOY/DE KOOY   NLD   1 m.
METAR EHKD 241525Z AUTO 31010KT 280V360 9999 NCD 17/12 Q1024
BLU 31011KT 9999 FEW035=

ZCZC
SA241525 EHFD     F3-FB-1   NLD   50 m.
METAR EHFD 241525Z AUTO 31015KT 9999 NCD 12/11 Q1023=

ZCZC
SA241525 EHAM     AMSTERDAM/SCHIPHOL   NLD   -3 m.
METAR EHAM 241525Z 31013KT 9999 FEW028 19/13 Q1024 NOSIG=

ZCZC
SA241525 EHVL     VLIELAND   NLD   10 m.
METAR EHVL 241525Z AUTO 30013KT 9999 NCD 16/12 Q1024 BLU=

ZCZC
SA241525 EHJR     K13-A   NLD   37 m.
METAR EHJR 241525Z NIL=

ZCZC
SA241525 EHLW     LEEUWARDEN/LEEUWARDEN   NLD   1 m.
METAR EHLW 241525Z AUTO 32013KT 290V360 9999 SCT018 BKN021 OVC340
18/13 Q1023 WHT=

ZCZC
SA241525 EHDL     ARNHEM/DEELEN   NLD   48 m.
METAR EHDL 241525Z AUTO 30011KT 290V020 9999 BKN041 OVC046 22/11
Q1023 BLU=

ZCZC
SA241525 EHGG     GRONINGEN/EELDE   NLD   5 m.
METAR EHGG 241525Z AUTO 33011KT 290V360 9999 FEW033 BKN041 18/12
Q1023 NOSIG=

ZCZC
SA241525 EHSC     LICHTEILAND GOEREE   NLD   22 m.
METAR EHSC 241525Z NIL=

ZCZC
SA241525 EHSA     EURO PLATFORM   NLD   19 m.
METAR EHSA 241525Z NIL=

ZCZC
SA241525 EHWO     WOENSDRECHT/WOENSDRECHT   NLD   19 m.
METAR EHWO 241525Z AUTO 28011KT 240V320 9999 OVC340 21/13 Q1024 BLU=

ZCZC
SA241525 EHRD     ROTTERDAM/THE HAGUE AIRPORT   NLD   -5 m.
METAR EHRD 241525Z AUTO 33007KT 280V010 9999 NSC 19/13 Q1024 NOSIG=

ZCZC
SA241525 EHGR     GILZE-RIJEN/GILZE-RIJEN   NLD   14 m.
METAR EHGR 241525Z AUTO 30012KT 250V350 9999 OVC350 23/11 Q1024 BLU=

ZCZC
SA241525 EHEH     EINDHOVEN/EINDHOVEN   NLD   22 m.
METAR EHEH 241525Z AUTO 31011KT 240V350 9999 FEW071 23/11 Q1023
BLU 31010G20KT FEW020 SCT045=

ZCZC
SA241525 EHVK     VOLKEL/VOLKEL   NLD   21 m.
METAR EHVK 241525Z AUTO 32008G18KT 260V350 9999 FEW044 23/11 Q1023
BLU 30008G18KT CAVOK=

ZCZC
SA241525 EHBK     MAASTRICHT/MAASTRICHT-AACHEN   NLD   114 m.
METAR EHBK 241525Z AUTO 32007KT 260V020 9999 NSC 22/10 Q1023 NOSIG=

ZCZC
SA241525 EHFZ     F16-A   NLD   43 m.
METAR EHFZ 241525Z AUTO 30018KT 9999 NCD 13/11 Q1024=

ZCZC
SA241525 EHKV     K14-FA-1C   NLD   41 m.
METAR EHKV 241525Z AUTO VRB11KT 9999 FEW025 13/12 Q1025=

ZCZC
SA241525 EHMG     L9-FF-1   NLD   44 m.
METAR EHMG 241525Z AUTO 32015KT 9999 FEW005 13/12 Q1023=

ZCZC
SA241525 EHMA     AWG-1   NLD   40 m.
METAR EHMA 241525Z AUTO 31017KT 9999 NCD 13/11 Q1023=

ZCZC
SA241525 EHDV     D15-FA-1   NLD   42 m.
METAR EHDV 241525Z AUTO 31014KT 9999 NSC 13/12 Q1024=

ZCZC
SA241525 EHAK     A12-CPP   NLD   48 m.
METAR EHAK 241525Z AUTO 33015KT 9999 NCD 12/10 Q1023=

ZCZC
SA241525 EHQE     HOORN-A   NLD   50 m.
METAR EHQE 241525Z AUTO 31015KT 9999 BKN028 13/12 Q1025=

ZCZC
SA241525 EHJA     J6-A   NLD   45 m.
METAR EHJA 241525Z AUTO 31019KT 9999 NCD 12/11 Q1025=

ZCZC
SA241525 EHPG     P11-B   NLD   41 m.
METAR EHPG 241525Z AUTO 32010KT 280V020 9999 NSC 14/12 Q1025=

ZCZC
SA241525 EHHW     BUITENGAATS/BG-OHVS2      42 m.
METAR EHHW 241525Z AUTO 34010KT 9999 SCT005/// BKN006/// BKN012///
13/11 Q1023=

24/05/2017 17.30 uur LT